createdAt,value
2018-11-26T00:00:22.914Z,0
2018-11-26T00:01:22.924Z,0
2018-11-26T00:02:22.950Z,0
2018-11-26T00:03:37.619Z,0
2018-11-26T00:04:22.985Z,0
2018-11-26T00:05:22.992Z,0
2018-11-26T00:06:23.002Z,0
2018-11-26T00:07:23.011Z,0
2018-11-26T00:08:23.029Z,0
2018-11-26T00:09:23.036Z,0
2018-11-26T00:10:23.053Z,0
2018-11-26T00:11:37.728Z,0
2018-11-26T00:12:37.743Z,0
2018-11-26T00:13:23.102Z,0
2018-11-26T00:14:23.115Z,0
2018-11-26T00:16:23.152Z,0
2018-11-26T00:17:23.158Z,0
2018-11-26T00:18:23.180Z,0
2018-11-26T00:19:23.188Z,0
2018-11-26T00:20:23.199Z,0
2018-11-26T00:21:23.214Z,0
2018-11-26T00:22:23.270Z,0
2018-11-26T00:23:37.897Z,0
2018-11-26T00:24:23.256Z,0
2018-11-26T00:25:23.267Z,0
2018-11-26T00:26:23.284Z,0
2018-11-26T00:27:23.344Z,0
2018-11-26T00:28:37.970Z,0
2018-11-26T00:29:23.325Z,0
2018-11-26T00:30:23.358Z,0
2018-11-26T00:31:23.372Z,0
2018-11-26T00:32:23.371Z,0
2018-11-26T00:34:23.396Z,0
2018-11-26T00:35:38.069Z,0
2018-11-26T00:36:23.424Z,0
2018-11-26T00:37:23.442Z,0
2018-11-26T00:38:23.445Z,0
2018-11-26T00:39:23.468Z,0
2018-11-26T00:40:23.487Z,0
2018-11-26T00:41:23.512Z,0
2018-11-26T00:42:23.507Z,0
2018-11-26T00:43:23.519Z,0
2018-11-26T00:44:23.556Z,0
2018-11-26T00:45:23.551Z,0
2018-11-26T00:46:23.567Z,0
2018-11-26T00:47:23.617Z,0
2018-11-26T00:48:23.593Z,0
2018-11-26T00:49:23.612Z,0
2018-11-26T00:50:23.617Z,0
2018-11-26T00:51:38.295Z,0
2018-11-26T00:52:38.305Z,0
2018-11-26T00:53:38.319Z,0
2018-11-26T00:54:38.339Z,0
2018-11-26T00:55:23.694Z,0
2018-11-26T00:56:38.358Z,0
2018-11-26T00:57:23.715Z,0
2018-11-26T00:58:23.729Z,0
2018-11-26T00:59:38.402Z,0
2018-11-26T01:00:23.756Z,0
2018-11-26T01:01:38.427Z,0
2018-11-26T01:02:23.787Z,0
2018-11-26T01:03:23.796Z,0
2018-11-26T01:05:23.821Z,0
2018-11-26T01:06:23.837Z,0
2018-11-26T01:07:38.512Z,0
2018-11-26T01:08:23.886Z,0
2018-11-26T01:09:38.539Z,0
2018-11-26T01:10:23.899Z,0
2018-11-26T01:12:23.927Z,0
2018-11-26T01:13:23.939Z,0
2018-11-26T01:14:23.948Z,0
2018-11-26T01:15:23.964Z,0
2018-11-26T01:16:23.976Z,0
2018-11-26T01:17:24.017Z,0
2018-11-26T01:18:24.043Z,0
2018-11-26T01:19:24.019Z,0
2018-11-26T01:20:24.036Z,0
2018-11-26T01:21:24.047Z,0
2018-11-26T01:22:24.055Z,0
2018-11-26T01:23:38.757Z,0
2018-11-26T01:24:24.093Z,0
2018-11-26T01:25:24.104Z,0
2018-11-26T01:26:24.109Z,0
2018-11-26T01:27:24.125Z,0
2018-11-26T01:28:24.136Z,0
2018-11-26T01:29:24.153Z,0
2018-11-26T01:30:38.578Z,0
2018-11-26T01:31:24.183Z,0
2018-11-26T01:32:24.194Z,0
2018-11-26T01:33:24.213Z,0
2018-11-26T01:34:38.901Z,0
2018-11-26T01:35:24.235Z,0
2018-11-26T01:36:24.283Z,0
2018-11-26T01:37:24.259Z,0
2018-11-26T01:38:38.933Z,0
2018-11-26T01:39:38.943Z,0
2018-11-26T01:40:24.324Z,0
2018-11-26T01:41:38.988Z,0
2018-11-26T01:42:24.325Z,0
2018-11-26T01:43:24.341Z,0
2018-11-26T01:44:24.361Z,0
2018-11-26T01:45:24.383Z,0
2018-11-26T01:46:24.377Z,0
2018-11-26T01:47:24.445Z,0
2018-11-26T01:48:39.063Z,0
2018-11-26T01:49:39.085Z,0
2018-11-26T01:50:39.100Z,0
2018-11-26T01:51:24.454Z,0
2018-11-26T01:52:24.460Z,0
2018-11-26T01:53:24.474Z,0
2018-11-26T01:54:24.491Z,0
2018-11-26T01:55:24.500Z,0
2018-11-26T01:56:24.520Z,0
2018-11-26T01:58:24.591Z,0
2018-11-26T01:59:24.552Z,0
2018-11-26T02:00:24.581Z,0
2018-11-26T02:01:24.582Z,0
2018-11-26T02:02:24.593Z,0
2018-11-26T02:03:24.609Z,0
2018-11-26T02:04:24.621Z,0
2018-11-26T02:05:24.688Z,0
2018-11-26T02:06:24.649Z,0
2018-11-26T02:07:24.664Z,0
2018-11-26T02:08:24.678Z,0
2018-11-26T02:09:24.689Z,0
2018-11-26T02:10:39.357Z,0
2018-11-26T02:11:39.375Z,0
2018-11-26T02:12:24.728Z,0
2018-11-26T02:13:24.743Z,0
2018-11-26T02:14:24.756Z,0
2018-11-26T02:15:24.782Z,0
2018-11-26T02:16:24.788Z,0
2018-11-26T02:17:24.806Z,0
2018-11-26T02:18:39.469Z,0
2018-11-26T02:19:24.821Z,0
2018-11-26T02:20:24.834Z,0
2018-11-26T02:21:24.855Z,0
2018-11-26T02:22:24.863Z,0
2018-11-26T02:23:39.540Z,0
2018-11-26T02:24:24.888Z,0
2018-11-26T02:25:24.904Z,0
2018-11-26T02:26:39.577Z,0
2018-11-26T02:27:25.244Z,0
2018-11-26T02:28:39.603Z,0
2018-11-26T02:30:24.971Z,0
2018-11-26T02:31:24.987Z,0
2018-11-26T02:32:25.013Z,0
2018-11-26T02:33:25.011Z,0
2018-11-26T02:34:39.688Z,0
2018-11-26T02:35:39.695Z,0
2018-11-26T02:36:25.052Z,0
2018-11-26T02:37:25.067Z,0
2018-11-26T02:38:25.076Z,0
2018-11-26T02:39:25.109Z,0
2018-11-26T02:40:25.107Z,0
2018-11-26T02:41:25.116Z,0
2018-11-26T02:42:39.793Z,0
2018-11-26T02:43:25.147Z,0
2018-11-26T02:44:25.159Z,0
2018-11-26T02:45:25.174Z,0
2018-11-26T02:46:39.850Z,0
2018-11-26T02:47:25.199Z,0
2018-11-26T02:48:25.212Z,0
2018-11-26T02:49:25.227Z,0
2018-11-26T02:50:25.242Z,0
2018-11-26T02:51:25.252Z,0
2018-11-26T02:52:25.279Z,0
2018-11-26T02:53:39.944Z,0
2018-11-26T02:54:25.295Z,0
2018-11-26T02:55:25.318Z,0
2018-11-26T02:56:25.334Z,0
2018-11-26T02:57:25.341Z,0
2018-11-26T02:58:40.007Z,0
2018-11-26T02:59:25.360Z,0
2018-11-26T03:00:25.378Z,0
2018-11-26T03:01:25.400Z,0
2018-11-26T03:02:25.405Z,0
2018-11-26T03:03:25.421Z,0
2018-11-26T03:07:25.475Z,0
2018-11-26T03:08:25.542Z,0
2018-11-26T03:09:25.493Z,0
2018-11-26T03:10:25.508Z,0
2018-11-26T03:11:25.534Z,0
2018-11-26T03:12:25.535Z,0
2018-11-26T03:13:40.217Z,0
2018-11-26T03:14:25.562Z,0
2018-11-26T03:15:25.581Z,0
2018-11-26T03:17:25.608Z,0
2018-11-26T03:19:25.637Z,0
2018-11-26T03:20:40.349Z,0
2018-11-26T03:21:25.659Z,0
2018-11-26T03:22:25.667Z,0
2018-11-26T03:23:25.682Z,0
2018-11-26T03:24:25.701Z,0
2018-11-26T03:26:25.725Z,0
2018-11-26T03:27:25.734Z,0
2018-11-26T03:28:25.505Z,0
2018-11-26T03:29:25.765Z,0
2018-11-26T03:30:25.560Z,0
2018-11-26T03:31:40.449Z,0
2018-11-26T03:32:25.834Z,0
2018-11-26T03:33:25.869Z,0
2018-11-26T03:34:25.831Z,0
2018-11-26T03:35:40.274Z,0
2018-11-26T03:36:25.860Z,0
2018-11-26T03:37:25.869Z,0
2018-11-26T03:38:25.886Z,0
2018-11-26T03:39:25.900Z,0
2018-11-26T03:40:25.912Z,0
2018-11-26T03:41:25.927Z,0
2018-11-26T03:42:25.947Z,0
2018-11-26T03:43:25.958Z,0
2018-11-26T03:44:25.964Z,0
2018-11-26T03:45:40.642Z,0
2018-11-26T03:47:26.005Z,0
2018-11-26T03:48:26.020Z,0
2018-11-26T03:49:26.032Z,0
2018-11-26T03:51:26.059Z,0
2018-11-26T03:52:26.068Z,0
2018-11-26T03:53:26.091Z,0
2018-11-26T03:54:26.108Z,0
2018-11-26T03:55:26.120Z,0
2018-11-26T03:56:26.130Z,0
2018-11-26T03:57:26.142Z,0
2018-11-26T03:58:26.158Z,0
2018-11-26T03:59:26.175Z,0
2018-11-26T04:00:26.188Z,0
2018-11-26T04:01:40.855Z,0
2018-11-26T04:02:26.221Z,0
2018-11-26T04:03:26.228Z,0
2018-11-26T04:04:26.233Z,0
2018-11-26T04:05:26.250Z,0
2018-11-26T04:06:26.267Z,0
2018-11-26T04:07:26.279Z,0
2018-11-26T04:09:26.305Z,0
2018-11-26T04:10:26.315Z,0
2018-11-26T04:11:26.362Z,0
2018-11-26T04:12:26.344Z,0
2018-11-26T04:13:26.352Z,0
2018-11-26T04:14:26.371Z,0
2018-11-26T04:15:26.389Z,0
2018-11-26T04:16:41.059Z,0
2018-11-26T04:17:41.073Z,0
2018-11-26T04:18:26.418Z,0
2018-11-26T04:19:26.439Z,0
2018-11-26T04:20:26.444Z,0
2018-11-26T04:21:41.117Z,0
2018-11-26T04:22:41.152Z,0
2018-11-26T04:23:26.502Z,0
2018-11-26T04:25:26.527Z,0
2018-11-26T04:26:26.534Z,0
2018-11-26T04:27:26.539Z,0
2018-11-26T04:28:26.573Z,0
2018-11-26T04:29:41.233Z,0
2018-11-26T04:30:26.580Z,0
2018-11-26T04:31:41.256Z,0
2018-11-26T04:32:26.610Z,0
2018-11-26T04:33:41.287Z,0
2018-11-26T04:35:26.653Z,0
2018-11-26T04:37:26.681Z,0
2018-11-26T04:39:26.717Z,0
2018-11-26T04:40:41.373Z,0
2018-11-26T04:41:26.737Z,0
2018-11-26T04:42:41.401Z,0
2018-11-26T04:43:26.755Z,0
2018-11-26T04:44:41.424Z,0
2018-11-26T04:45:26.786Z,0
2018-11-26T04:46:26.813Z,0
2018-11-26T04:47:26.825Z,0
2018-11-26T04:48:41.485Z,0
2018-11-26T04:49:41.495Z,0
2018-11-26T04:50:26.858Z,0
2018-11-26T04:51:26.862Z,0
2018-11-26T04:52:26.878Z,0
2018-11-26T04:53:26.896Z,0
2018-11-26T04:54:26.904Z,0
2018-11-26T04:55:26.914Z,0
2018-11-26T04:57:45.302Z,0
2018-11-26T04:58:41.624Z,0
2018-11-26T04:59:26.966Z,0
2018-11-26T05:00:26.988Z,0
2018-11-26T05:01:26.995Z,0
2018-11-26T05:02:27.015Z,0
2018-11-26T05:03:27.025Z,0
2018-11-26T05:04:41.698Z,0
2018-11-26T05:05:28.202Z,0
2018-11-26T05:06:41.726Z,0
2018-11-26T05:07:41.750Z,0
2018-11-26T05:08:27.096Z,0
2018-11-26T05:10:41.782Z,0
2018-11-26T05:11:41.791Z,0
2018-11-26T05:12:27.146Z,0
2018-11-26T05:13:27.155Z,0
2018-11-26T05:14:27.170Z,0
2018-11-26T05:15:27.188Z,0
2018-11-26T05:16:27.198Z,0
2018-11-26T05:17:27.227Z,0
2018-11-26T05:18:27.251Z,0
2018-11-26T05:19:27.237Z,0
2018-11-26T05:20:41.914Z,0
2018-11-26T05:22:27.274Z,0
2018-11-26T05:25:27.328Z,0
2018-11-26T05:26:41.993Z,0
2018-11-26T05:27:27.347Z,0
2018-11-26T05:28:27.365Z,0
2018-11-26T05:29:27.371Z,0
2018-11-26T05:30:42.044Z,0
2018-11-26T05:31:27.399Z,0
2018-11-26T05:32:27.414Z,0
2018-11-26T05:33:27.429Z,0
2018-11-26T05:34:27.455Z,0
2018-11-26T05:35:27.455Z,0
2018-11-26T05:36:42.129Z,0
2018-11-26T05:37:27.477Z,0
2018-11-26T05:38:27.500Z,0
2018-11-26T05:39:27.510Z,0
2018-11-26T05:40:27.522Z,0
2018-11-26T05:41:27.533Z,0
2018-11-26T05:42:33.604Z,0
2018-11-26T05:43:27.563Z,0
2018-11-26T05:44:27.580Z,0
2018-11-26T05:45:42.244Z,0
2018-11-26T05:46:27.600Z,0
2018-11-26T05:47:27.616Z,0
2018-11-26T05:48:27.631Z,0
2018-11-26T05:49:27.742Z,0
2018-11-26T05:50:27.667Z,0
2018-11-26T05:51:27.668Z,0
2018-11-26T05:52:42.335Z,0
2018-11-26T05:53:27.692Z,0
2018-11-26T05:54:27.706Z,0
2018-11-26T05:55:28.494Z,0
2018-11-26T05:56:27.739Z,0
2018-11-26T05:57:27.758Z,0
2018-11-26T05:58:27.762Z,0
2018-11-26T05:59:27.774Z,0
2018-11-26T06:00:42.450Z,0
2018-11-26T06:01:27.799Z,0
2018-11-26T06:02:27.822Z,0
2018-11-26T06:03:27.827Z,0
2018-11-26T06:04:27.843Z,0
2018-11-26T06:05:27.863Z,0
2018-11-26T06:06:27.890Z,0
2018-11-26T06:07:27.885Z,0
2018-11-26T06:08:42.552Z,0
2018-11-26T06:09:27.913Z,0
2018-11-26T06:10:27.929Z,0
2018-11-26T06:12:27.945Z,0
2018-11-26T06:13:27.964Z,0
2018-11-26T06:14:27.970Z,0
2018-11-26T06:15:27.990Z,0
2018-11-26T06:16:42.661Z,0
2018-11-26T06:17:28.016Z,4
2018-11-26T06:18:28.033Z,4
2018-11-26T06:19:28.046Z,4
2018-11-26T06:20:28.056Z,0
2018-11-26T06:21:28.095Z,4
2018-11-26T06:22:28.079Z,4
2018-11-26T06:23:42.753Z,4
2018-11-26T06:24:28.112Z,8
2018-11-26T06:25:28.128Z,8
2018-11-26T06:28:42.826Z,16
2018-11-26T06:30:42.849Z,16
2018-11-26T06:31:28.209Z,16
2018-11-26T06:32:28.216Z,24
2018-11-26T06:33:28.228Z,24
2018-11-26T06:34:28.243Z,24
2018-11-26T06:35:28.260Z,28
2018-11-26T06:36:28.272Z,32
2018-11-26T06:37:28.284Z,36
2018-11-26T06:38:28.296Z,36
2018-11-26T06:39:42.981Z,44
2018-11-26T06:40:42.983Z,44
2018-11-26T06:41:28.339Z,44
2018-11-26T06:42:28.353Z,48
2018-11-26T06:43:28.362Z,52
2018-11-26T06:44:28.481Z,60
2018-11-26T06:45:43.051Z,64
2018-11-26T06:46:28.417Z,68
2018-11-26T06:47:28.423Z,64
2018-11-26T06:48:43.087Z,68
2018-11-26T06:49:28.548Z,76
2018-11-26T06:50:28.465Z,80
2018-11-26T06:51:28.469Z,80
2018-11-26T06:52:28.488Z,84
2018-11-26T06:53:28.499Z,88
2018-11-26T06:54:28.513Z,84
2018-11-26T06:55:43.183Z,84
2018-11-26T06:57:28.549Z,92
2018-11-26T06:58:28.577Z,88
2018-11-26T07:00:28.591Z,92
2018-11-26T07:01:28.648Z,92
2018-11-26T07:02:28.623Z,96
2018-11-26T07:03:28.632Z,96
2018-11-26T07:04:43.303Z,96
2018-11-26T07:05:28.668Z,96
2018-11-26T07:06:28.673Z,104
2018-11-26T07:07:28.684Z,108
2018-11-26T07:08:28.716Z,108
2018-11-26T07:09:28.711Z,116
2018-11-26T07:10:28.724Z,120
2018-11-26T07:11:43.414Z,124
2018-11-26T07:13:28.773Z,116
2018-11-26T07:14:28.788Z,124
2018-11-26T07:15:28.795Z,132
2018-11-26T07:16:28.848Z,132
2018-11-26T07:17:28.820Z,136
2018-11-26T07:18:28.832Z,140
2018-11-26T07:19:43.511Z,148
2018-11-26T07:20:28.862Z,152
2018-11-26T07:21:28.878Z,172
2018-11-26T07:22:28.890Z,180
2018-11-26T07:23:28.905Z,200
2018-11-26T07:24:43.594Z,212
2018-11-26T07:25:43.590Z,228
2018-11-26T07:26:28.945Z,248
2018-11-26T07:27:43.619Z,296
2018-11-26T07:28:28.970Z,320
2018-11-26T07:29:31.469Z,312
2018-11-26T07:30:28.999Z,292
2018-11-26T07:31:29.011Z,296
2018-11-26T07:32:29.028Z,332
2018-11-26T07:33:43.700Z,340
2018-11-26T07:34:43.707Z,352
2018-11-26T07:35:43.733Z,368
2018-11-26T07:36:29.081Z,376
2018-11-26T07:37:29.090Z,388
2018-11-26T07:38:29.106Z,408
2018-11-26T07:39:29.121Z,412
2018-11-26T07:40:29.146Z,416
2018-11-26T07:41:29.157Z,428
2018-11-26T07:42:29.168Z,432
2018-11-26T07:43:43.832Z,424
2018-11-26T07:44:29.186Z,456
2018-11-26T07:45:29.201Z,500
2018-11-26T07:46:29.220Z,616
2018-11-26T07:47:29.227Z,660
2018-11-26T07:48:43.903Z,684
2018-11-26T07:49:30.552Z,676
2018-11-26T07:50:29.270Z,648
2018-11-26T07:51:43.935Z,596
2018-11-26T07:52:29.329Z,564
2018-11-26T07:53:29.302Z,532
2018-11-26T07:54:29.324Z,548
2018-11-26T07:55:29.336Z,524
2018-11-26T07:56:29.346Z,568
2018-11-26T07:57:29.361Z,560
2018-11-26T07:58:44.040Z,564
2018-11-26T07:59:29.390Z,520
2018-11-26T08:00:29.421Z,468
2018-11-26T08:01:29.418Z,504
2018-11-26T08:02:29.554Z,540
2018-11-26T08:03:44.160Z,564
2018-11-26T08:05:29.471Z,656
2018-11-26T08:07:29.498Z,620
2018-11-26T08:08:29.506Z,620
2018-11-26T08:09:29.522Z,640
2018-11-26T08:10:29.538Z,600
2018-11-26T08:11:29.562Z,564
2018-11-26T08:12:29.564Z,608
2018-11-26T08:13:29.580Z,584
2018-11-26T08:14:29.596Z,560
2018-11-26T08:15:29.807Z,556
2018-11-26T08:16:29.633Z,536
2018-11-26T08:17:29.636Z,552
2018-11-26T08:18:29.402Z,544
2018-11-26T08:19:29.665Z,548
2018-11-26T08:20:29.676Z,580
2018-11-26T08:21:29.690Z,620
2018-11-26T08:22:44.358Z,660
2018-11-26T08:23:44.372Z,608
2018-11-26T08:24:29.737Z,652
2018-11-26T08:25:29.745Z,808
2018-11-26T08:26:29.760Z,864
2018-11-26T08:27:29.823Z,836
2018-11-26T08:28:29.786Z,856
2018-11-26T08:29:29.899Z,892
2018-11-26T08:30:44.469Z,796
2018-11-26T08:31:29.823Z,852
2018-11-26T08:32:36.192Z,852
2018-11-26T08:33:30.039Z,904
2018-11-26T08:34:29.870Z,912
2018-11-26T08:35:29.887Z,912
2018-11-26T08:36:44.551Z,968
2018-11-26T08:37:29.902Z,980
2018-11-26T08:38:29.928Z,968
2018-11-26T08:39:29.933Z,1036
2018-11-26T08:40:29.959Z,1024
2018-11-26T08:41:29.960Z,992
2018-11-26T08:42:29.974Z,928
2018-11-26T08:43:29.985Z,976
2018-11-26T08:44:30.068Z,1068
2018-11-26T08:45:30.013Z,968
2018-11-26T08:46:44.690Z,1028
2018-11-26T08:47:30.052Z,1000
2018-11-26T08:48:30.089Z,1068
2018-11-26T08:49:30.076Z,1068
2018-11-26T08:50:30.103Z,984
2018-11-26T08:51:30.099Z,940
2018-11-26T08:52:30.115Z,940
2018-11-26T08:53:44.787Z,968
2018-11-26T08:55:30.154Z,1104
2018-11-26T08:56:30.169Z,1044
2018-11-26T08:57:30.187Z,1076
2018-11-26T08:58:30.191Z,1184
2018-11-26T08:59:30.208Z,1308
2018-11-26T09:00:30.220Z,1300
2018-11-26T09:01:29.987Z,1332
2018-11-26T09:02:44.909Z,1448
2018-11-26T09:03:30.270Z,1592
2018-11-26T09:04:30.280Z,1680
2018-11-26T09:06:30.312Z,1648
2018-11-26T09:07:30.320Z,1628
2018-11-26T09:08:30.330Z,1644
2018-11-26T09:09:35.267Z,1652
2018-11-26T09:10:45.017Z,1632
2018-11-26T09:11:45.031Z,1656
2018-11-26T09:12:45.046Z,1760
2018-11-26T09:13:30.404Z,1712
2018-11-26T09:14:30.415Z,1648
2018-11-26T09:15:30.431Z,1688
2018-11-26T09:16:30.443Z,1788
2018-11-26T09:17:45.117Z,1856
2018-11-26T09:18:45.182Z,1892
2018-11-26T09:19:45.144Z,1880
2018-11-26T09:20:31.266Z,1936
2018-11-26T09:21:30.510Z,1920
2018-11-26T09:22:30.529Z,1964
2018-11-26T09:24:30.552Z,1820
2018-11-26T09:25:45.233Z,1720
2018-11-26T09:26:30.595Z,1808
2018-11-26T09:27:45.257Z,1672
2018-11-26T09:28:30.608Z,1564
2018-11-26T09:29:30.622Z,1484
2018-11-26T09:30:45.302Z,1528
2018-11-26T09:31:45.316Z,1592
2018-11-26T09:32:30.678Z,1580
2018-11-26T09:33:45.395Z,1564
2018-11-26T09:34:30.695Z,1644
2018-11-26T09:35:30.728Z,1612
2018-11-26T09:36:30.735Z,1620
2018-11-26T09:37:30.760Z,1608
2018-11-26T09:38:30.755Z,1644
2018-11-26T09:39:30.778Z,1680
2018-11-26T09:40:45.439Z,1520
2018-11-26T09:42:45.467Z,1908
2018-11-26T09:43:30.878Z,2104
2018-11-26T09:44:30.969Z,2072
2018-11-26T09:45:30.659Z,2176
2018-11-26T09:46:30.873Z,2196
2018-11-26T09:47:31.011Z,2508
2018-11-26T09:48:30.906Z,2692
2018-11-26T09:49:31.075Z,2752
2018-11-26T09:50:30.924Z,3064
2018-11-26T09:51:30.948Z,3156
2018-11-26T09:52:30.706Z,3032
2018-11-26T09:53:30.974Z,2828
2018-11-26T09:54:33.278Z,2764
2018-11-26T09:56:45.675Z,2560
2018-11-26T09:57:31.023Z,2432
2018-11-26T09:58:31.044Z,2160
2018-11-26T09:59:31.058Z,1944
2018-11-26T10:00:31.083Z,2044
2018-11-26T10:01:31.086Z,2124
2018-11-26T10:02:31.099Z,2224
2018-11-26T10:03:31.115Z,2328
2018-11-26T10:04:31.126Z,2400
2018-11-26T10:05:45.808Z,2300
2018-11-26T10:06:45.815Z,2520
2018-11-26T10:07:45.832Z,2500
2018-11-26T10:09:45.854Z,2492
2018-11-26T10:10:31.216Z,2352
2018-11-26T10:11:31.231Z,2372
2018-11-26T10:12:31.244Z,2396
2018-11-26T10:13:31.254Z,2504
2018-11-26T10:14:45.930Z,2740
2018-11-26T10:15:31.294Z,2888
2018-11-26T10:16:31.305Z,2904
2018-11-26T10:17:31.354Z,2664
2018-11-26T10:18:31.436Z,2700
2018-11-26T10:19:31.346Z,2944
2018-11-26T10:20:31.364Z,2932
2018-11-26T10:21:46.032Z,3220
2018-11-26T10:22:31.389Z,3432
2018-11-26T10:23:31.156Z,3412
2018-11-26T10:24:31.423Z,3236
2018-11-26T10:25:46.117Z,3012
2018-11-26T10:26:31.442Z,2996
2018-11-26T10:28:31.691Z,2780
2018-11-26T10:29:31.491Z,2628
2018-11-26T10:30:31.273Z,2812
2018-11-26T10:31:31.524Z,2656
2018-11-26T10:32:31.541Z,2604
2018-11-26T10:33:31.554Z,2592
2018-11-26T10:34:31.565Z,2480
2018-11-26T10:35:31.580Z,2636
2018-11-26T10:36:31.601Z,2952
2018-11-26T10:37:46.268Z,2888
2018-11-26T10:39:31.643Z,2516
2018-11-26T10:41:31.768Z,2284
2018-11-26T10:42:31.681Z,2452
2018-11-26T10:44:31.709Z,2244
2018-11-26T10:45:31.721Z,2388
2018-11-26T10:46:31.844Z,2372
2018-11-26T10:47:31.764Z,2636
2018-11-26T10:48:31.769Z,2884
2018-11-26T10:49:31.801Z,3056
2018-11-26T10:50:31.808Z,2832
2018-11-26T10:51:31.816Z,2584
2018-11-26T10:52:31.843Z,2528
2018-11-26T10:53:46.500Z,2368
2018-11-26T10:54:31.859Z,2592
2018-11-26T10:55:31.880Z,2808
2018-11-26T10:56:32.188Z,2876
2018-11-26T10:58:31.924Z,2828
2018-11-26T10:59:31.941Z,2972
2018-11-26T11:00:31.946Z,2944
2018-11-26T11:01:46.629Z,2768
2018-11-26T11:02:31.981Z,2684
2018-11-26T11:03:32.025Z,2524
2018-11-26T11:04:32.022Z,2764
2018-11-26T11:05:32.065Z,2816
2018-11-26T11:06:32.049Z,2816
2018-11-26T11:07:46.748Z,2652
2018-11-26T11:08:46.727Z,2604
2018-11-26T11:09:32.254Z,2624
2018-11-26T11:11:46.781Z,2636
2018-11-26T11:12:32.167Z,2648
2018-11-26T11:13:32.156Z,2564
2018-11-26T11:14:32.206Z,2516
2018-11-26T11:15:32.177Z,2468
2018-11-26T11:16:32.216Z,2456
2018-11-26T11:17:32.231Z,2504
2018-11-26T11:18:32.219Z,2572
2018-11-26T11:19:32.230Z,2428
2018-11-26T11:20:32.282Z,2304
2018-11-26T11:21:32.311Z,2092
2018-11-26T11:22:32.317Z,2016
2018-11-26T11:23:32.292Z,1924
2018-11-26T11:24:32.332Z,1972
2018-11-26T11:25:32.317Z,1956
2018-11-26T11:26:47.815Z,1936
2018-11-26T11:27:32.348Z,1824
2018-11-26T11:28:32.401Z,1788
2018-11-26T11:29:32.437Z,1740
2018-11-26T11:30:47.406Z,1712
2018-11-26T11:31:32.447Z,1660
2018-11-26T11:32:32.413Z,1628
2018-11-26T11:33:32.892Z,1668
2018-11-26T11:34:32.455Z,1540
2018-11-26T11:35:32.522Z,1592
2018-11-26T11:36:32.487Z,1656
2018-11-26T11:37:32.536Z,1556
2018-11-26T11:38:33.072Z,1520
2018-11-26T11:39:32.531Z,1424
2018-11-26T11:40:47.208Z,1416
2018-11-26T11:41:37.061Z,1408
2018-11-26T11:42:32.563Z,1360
2018-11-26T11:43:32.677Z,1368
2018-11-26T11:44:47.258Z,1276
2018-11-26T11:45:32.405Z,1284
2018-11-26T11:46:32.653Z,1364
2018-11-26T11:47:32.686Z,1348
2018-11-26T11:48:32.650Z,1308
2018-11-26T11:49:32.679Z,1288
2018-11-26T11:50:47.356Z,1220
2018-11-26T11:51:32.728Z,1184
2018-11-26T11:52:32.817Z,1188
2018-11-26T11:54:32.781Z,1180
2018-11-26T11:55:32.750Z,1176
2018-11-26T11:56:47.447Z,1184
2018-11-26T11:57:32.801Z,1200
2018-11-26T11:58:32.844Z,1228
2018-11-26T11:59:32.851Z,1232
2018-11-26T12:00:32.845Z,1260
2018-11-26T12:01:32.853Z,1328
2018-11-26T12:02:32.609Z,1360
2018-11-26T12:03:32.917Z,1432
2018-11-26T12:04:32.903Z,1420
2018-11-26T12:05:32.969Z,1392
2018-11-26T12:06:32.918Z,1316
2018-11-26T12:07:32.989Z,1344
2018-11-26T12:08:32.969Z,1456
2018-11-26T12:09:32.980Z,1432
2018-11-26T12:10:33.058Z,1444
2018-11-26T12:11:32.988Z,1464
2018-11-26T12:12:47.718Z,1388
2018-11-26T12:13:33.045Z,1412
2018-11-26T12:14:33.066Z,1352
2018-11-26T12:15:33.132Z,1420
2018-11-26T12:16:33.066Z,1500
2018-11-26T12:17:33.154Z,1768
2018-11-26T12:18:33.092Z,1824
2018-11-26T12:19:47.803Z,1728
2018-11-26T12:20:33.163Z,1772
2018-11-26T12:21:47.867Z,1736
2018-11-26T12:23:33.173Z,1984
2018-11-26T12:24:33.208Z,2316
2018-11-26T12:25:33.207Z,2256
2018-11-26T12:26:33.254Z,2164
2018-11-26T12:27:33.273Z,2256
2018-11-26T12:28:47.934Z,2164
2018-11-26T12:29:33.301Z,2112
2018-11-26T12:30:33.770Z,2152
2018-11-26T12:32:33.340Z,2184
2018-11-26T12:33:33.359Z,2060
2018-11-26T12:34:48.022Z,2004
2018-11-26T12:35:33.429Z,1996
2018-11-26T12:36:33.387Z,2060
2018-11-26T12:37:48.048Z,1968
2018-11-26T12:38:33.420Z,1932
2018-11-26T12:39:33.450Z,1812
2018-11-26T12:40:33.458Z,1688
2018-11-26T12:41:33.479Z,1576
2018-11-26T12:42:33.450Z,1404
2018-11-26T12:43:48.127Z,1352
2018-11-26T12:44:33.503Z,1360
2018-11-26T12:45:33.685Z,1336
2018-11-26T12:46:33.558Z,1312
2018-11-26T12:47:33.536Z,1372
2018-11-26T12:48:33.570Z,1536
2018-11-26T12:50:33.607Z,1616
2018-11-26T12:51:33.581Z,1628
2018-11-26T12:52:48.352Z,1644
2018-11-26T12:54:33.646Z,1588
2018-11-26T12:55:33.744Z,1536
2018-11-26T12:56:33.659Z,1612
2018-11-26T12:57:33.692Z,1616
2018-11-26T12:58:33.707Z,1504
2018-11-26T12:59:33.750Z,1416
2018-11-26T13:00:33.763Z,1340
2018-11-26T13:01:34.085Z,1344
2018-11-26T13:02:33.773Z,1336
2018-11-26T13:03:33.794Z,1328
2018-11-26T13:04:33.774Z,1384
2018-11-26T13:05:33.844Z,1348
2018-11-26T13:06:33.820Z,1308
2018-11-26T13:07:33.837Z,1248
2018-11-26T13:08:33.850Z,1180
2018-11-26T13:09:48.545Z,1068
2018-11-26T13:10:33.935Z,1012
2018-11-26T13:11:33.886Z,992
2018-11-26T13:13:33.908Z,960
2018-11-26T13:14:33.952Z,876
2018-11-26T13:15:48.629Z,848
2018-11-26T13:16:33.981Z,860
2018-11-26T13:17:34.022Z,836
2018-11-26T13:18:33.990Z,832
2018-11-26T13:19:34.063Z,788
2018-11-26T13:20:34.021Z,748
2018-11-26T13:21:34.065Z,708
2018-11-26T13:22:34.050Z,692
2018-11-26T13:23:34.103Z,680
2018-11-26T13:24:34.102Z,676
2018-11-26T13:25:34.131Z,664
2018-11-26T13:26:34.114Z,684
2018-11-26T13:27:34.122Z,656
2018-11-26T13:28:34.173Z,608
2018-11-26T13:29:34.178Z,588
2018-11-26T13:30:34.164Z,580
2018-11-26T13:31:48.872Z,624
2018-11-26T13:32:34.230Z,648
2018-11-26T13:33:34.254Z,644
2018-11-26T13:34:34.407Z,624
2018-11-26T13:35:49.196Z,608
2018-11-26T13:36:34.263Z,616
2018-11-26T13:37:34.439Z,612
2018-11-26T13:38:34.306Z,604
2018-11-26T13:39:48.971Z,572
2018-11-26T13:40:34.358Z,572
2018-11-26T13:41:34.322Z,556
2018-11-26T13:42:34.389Z,528
2018-11-26T13:43:34.350Z,508
2018-11-26T13:44:34.400Z,504
2018-11-26T13:45:34.385Z,508
2018-11-26T13:46:34.442Z,492
2018-11-26T13:47:49.099Z,476
2018-11-26T13:48:34.440Z,480
2018-11-26T13:49:34.452Z,508
2018-11-26T13:50:34.461Z,536
2018-11-26T13:51:34.561Z,508
2018-11-26T13:52:34.506Z,484
2018-11-26T13:53:34.549Z,452
2018-11-26T13:54:34.570Z,412
2018-11-26T13:55:34.576Z,388
2018-11-26T13:56:34.560Z,400
2018-11-26T13:57:49.232Z,408
2018-11-26T13:58:34.601Z,392
2018-11-26T13:59:34.589Z,352
2018-11-26T14:00:34.618Z,332
2018-11-26T14:01:34.650Z,316
2018-11-26T14:02:34.665Z,304
2018-11-26T14:03:49.337Z,300
2018-11-26T14:04:34.660Z,296
2018-11-26T14:05:34.723Z,288
2018-11-26T14:06:34.688Z,276
2018-11-26T14:07:34.743Z,264
2018-11-26T14:08:49.394Z,252
2018-11-26T14:09:34.925Z,244
2018-11-26T14:10:34.548Z,236
2018-11-26T14:11:34.781Z,228
2018-11-26T14:12:34.836Z,232
2018-11-26T14:13:49.452Z,244
2018-11-26T14:14:54.173Z,256
2018-11-26T14:15:49.603Z,260
2018-11-26T14:16:34.872Z,252
2018-11-26T14:17:34.903Z,252
2018-11-26T14:18:49.529Z,248
2018-11-26T14:19:34.925Z,240
2018-11-26T14:20:34.901Z,232
2018-11-26T14:21:34.939Z,224
2018-11-26T14:22:34.924Z,200
2018-11-26T14:23:34.985Z,192
2018-11-26T14:24:34.958Z,188
2018-11-26T14:26:35.001Z,168
2018-11-26T14:27:35.052Z,168
2018-11-26T14:28:49.747Z,172
2018-11-26T14:29:35.074Z,168
2018-11-26T14:30:35.044Z,176
2018-11-26T14:31:35.082Z,172
2018-11-26T14:32:35.086Z,164
2018-11-26T14:34:35.146Z,156
2018-11-26T14:35:35.121Z,148
2018-11-26T14:36:35.179Z,140
2018-11-26T14:37:34.934Z,136
2018-11-26T14:38:35.174Z,128
2018-11-26T14:39:35.217Z,120
2018-11-26T14:40:35.184Z,116
2018-11-26T14:41:35.225Z,108
2018-11-26T14:42:49.887Z,100
2018-11-26T14:43:35.331Z,100
2018-11-26T14:44:35.290Z,96
2018-11-26T14:45:35.271Z,92
2018-11-26T14:46:35.047Z,84
2018-11-26T14:47:35.288Z,76
2018-11-26T14:48:35.352Z,72
2018-11-26T14:49:35.320Z,68
2018-11-26T14:50:50.027Z,64
2018-11-26T14:51:35.359Z,60
2018-11-26T14:52:35.452Z,56
2018-11-26T14:53:50.057Z,48
2018-11-26T14:54:35.437Z,44
2018-11-26T14:55:50.063Z,44
2018-11-26T14:56:35.465Z,40
2018-11-26T14:57:35.607Z,40